createdAt,value
2023-02-22T00:02:04.808Z,6.47
2023-02-22T00:04:24.592Z,6.48
2023-02-22T00:06:41.041Z,6.46
2023-02-22T00:08:57.692Z,6.51
2023-02-22T00:11:17.371Z,6.53
2023-02-22T00:13:32.782Z,6.53
2023-02-22T00:15:53.090Z,6.53
2023-02-22T00:18:08.599Z,6.53
2023-02-22T00:20:25.179Z,6.48
2023-02-22T00:22:43.312Z,6.46
2023-02-22T00:25:03.845Z,6.44
2023-02-22T00:27:24.495Z,6.36
2023-02-22T00:30:52.969Z,6.32
2023-02-22T00:33:13.542Z,6.30
2023-02-22T00:35:34.122Z,6.26
2023-02-22T00:37:54.737Z,6.25
2023-02-22T00:40:12.768Z,6.19
2023-02-22T00:42:31.001Z,6.09
2023-02-22T00:44:51.552Z,6.06
2023-02-22T00:47:08.665Z,6.10
2023-02-22T00:49:25.241Z,6.11
2023-02-22T00:51:43.868Z,6.14
2023-02-22T00:53:59.837Z,6.18
2023-02-22T00:56:20.489Z,6.14
2023-02-22T00:59:26.069Z,6.10
2023-02-22T01:01:38.067Z,6.09
2023-02-22T01:03:55.020Z,6.06
2023-02-22T01:06:13.183Z,6.00
2023-02-22T01:08:32.255Z,5.93
2023-02-22T01:10:52.314Z,5.83
2023-02-22T01:13:07.981Z,5.75
2023-02-22T01:16:17.435Z,5.64
2023-02-22T01:19:57.260Z,5.52
2023-02-22T01:22:15.007Z,5.37
2023-02-22T01:24:33.038Z,5.25
2023-02-22T01:26:53.678Z,5.19
2023-02-22T01:29:14.225Z,5.10
2023-02-22T01:32:43.826Z,4.92
2023-02-22T01:35:04.333Z,4.96
2023-02-22T01:37:19.923Z,4.99
2023-02-22T01:39:36.534Z,5.04
2023-02-22T01:41:57.419Z,5.05
2023-02-22T01:44:13.701Z,5.05
2023-02-22T01:46:29.490Z,5.14
2023-02-22T01:48:49.833Z,5.19
2023-02-22T01:51:11.193Z,5.22
2023-02-22T01:54:40.504Z,5.30
2023-02-22T01:58:10.010Z,5.19
2023-02-22T02:00:28.117Z,5.12
2023-02-22T02:02:50.747Z,4.99
2023-02-22T02:07:00.752Z,4.77
2023-02-22T02:09:17.249Z,4.72
2023-02-22T02:11:32.906Z,4.67
2023-02-22T02:13:50.983Z,4.67
2023-02-22T02:16:10.105Z,4.65
2023-02-22T02:18:26.657Z,4.67
2023-02-22T02:20:44.713Z,4.69
2023-02-22T02:23:05.379Z,4.73
2023-02-22T02:25:23.438Z,4.76
2023-02-22T02:27:44.009Z,4.79
2023-02-22T02:30:08.119Z,4.84
2023-02-22T02:32:22.744Z,4.88
2023-02-22T02:34:38.254Z,4.91
2023-02-22T02:36:56.484Z,4.94
2023-02-22T02:39:17.133Z,4.98
2023-02-22T02:41:33.868Z,5.01
2023-02-22T02:43:54.316Z,5.07
2023-02-22T02:46:13.594Z,5.04
2023-02-22T02:48:31.746Z,5.04
2023-02-22T02:50:48.390Z,5.05
2023-02-22T02:53:06.385Z,5.07
2023-02-22T02:55:25.460Z,5.12
2023-02-22T02:57:46.132Z,5.14
2023-02-22T03:00:04.291Z,5.16
2023-02-22T03:02:17.389Z,5.19
2023-02-22T03:04:35.474Z,5.23
2023-02-22T03:06:54.544Z,5.27
2023-02-22T03:09:15.106Z,5.27
2023-02-22T03:12:45.756Z,5.27
2023-02-22T03:15:03.901Z,5.27
2023-02-22T03:17:24.489Z,5.23
2023-02-22T03:19:42.710Z,5.19
2023-02-22T03:22:03.189Z,5.16
2023-02-22T03:24:23.927Z,5.14
2023-02-22T03:26:44.710Z,5.13
2023-02-22T03:29:03.648Z,5.12
2023-02-22T03:32:25.689Z,5.09
2023-02-22T03:34:43.742Z,5.12
2023-02-22T03:37:01.859Z,5.13
2023-02-22T03:39:22.467Z,5.14
2023-02-22T03:41:43.080Z,5.20
2023-02-22T03:43:59.623Z,5.20
2023-02-22T03:46:20.336Z,5.23
2023-02-22T03:48:40.870Z,5.27
2023-02-22T03:51:01.425Z,5.30
2023-02-22T03:53:19.556Z,5.30
2023-02-22T03:55:36.144Z,5.28
2023-02-22T03:57:56.861Z,5.30
2023-02-22T04:00:15.903Z,5.30
2023-02-22T04:02:32.473Z,5.30
2023-02-22T04:04:53.133Z,5.27
2023-02-22T04:10:09.710Z,5.31
2023-02-22T04:12:27.764Z,5.31
2023-02-22T04:14:49.798Z,5.30
2023-02-22T04:17:08.969Z,5.30
2023-02-22T04:19:25.776Z,5.27
2023-02-22T04:21:40.548Z,5.27
2023-02-22T04:23:58.069Z,5.28
2023-02-22T04:26:13.766Z,5.27
2023-02-22T04:30:58.553Z,5.27
2023-02-22T04:33:10.779Z,5.30
2023-02-22T04:35:33.023Z,5.25
2023-02-22T04:37:49.594Z,5.27
2023-02-22T04:40:06.045Z,5.31
2023-02-22T04:42:24.290Z,5.32
2023-02-22T04:44:44.796Z,5.40
2023-02-22T04:47:01.821Z,5.37
2023-02-22T04:49:21.062Z,5.40
2023-02-22T04:51:39.153Z,5.46
2023-02-22T04:53:57.604Z,5.48
2023-02-22T04:56:15.158Z,5.48
2023-02-22T04:58:31.713Z,5.50
2023-02-22T05:00:52.758Z,5.52
2023-02-22T05:03:08.093Z,5.52
2023-02-22T05:05:33.110Z,5.55
2023-02-22T05:09:31.300Z,5.55
2023-02-22T05:11:52.224Z,5.59
2023-02-22T05:14:10.601Z,5.59
2023-02-22T05:16:29.673Z,5.63
2023-02-22T05:18:48.089Z,5.64
2023-02-22T05:21:04.028Z,5.64
2023-02-22T05:23:25.569Z,5.66
2023-02-22T05:26:50.576Z,5.67
2023-02-22T05:29:07.774Z,5.68
2023-02-22T05:32:02.116Z,5.68
2023-02-22T05:34:23.166Z,5.70
2023-02-22T05:36:45.880Z,5.70
2023-02-22T05:39:32.167Z,5.71
2023-02-22T05:45:46.178Z,5.70
2023-02-22T05:48:32.028Z,5.73
2023-02-22T05:50:50.268Z,5.77
2023-02-22T05:53:07.266Z,5.77
2023-02-22T05:56:14.368Z,5.77
2023-02-22T05:58:34.898Z,5.78
2023-02-22T06:02:04.525Z,5.82
2023-02-22T06:10:08.398Z,5.86
2023-02-22T06:13:47.932Z,5.89
2023-02-22T06:16:17.640Z,5.92
2023-02-22T06:20:57.180Z,5.93
2023-02-22T06:24:35.647Z,5.98
2023-02-22T06:27:22.451Z,6.00
2023-02-22T06:38:35.239Z,6.11
2023-02-22T06:40:52.237Z,6.13
2023-02-22T06:45:38.086Z,6.21
2023-02-22T06:49:07.480Z,6.29
2023-02-22T09:52:45.580Z,10.28
2023-02-22T12:10:14.710Z,10.92
2023-02-22T19:03:37.649Z,6.38
2023-02-22T20:14:38.025Z,6.13
2023-02-22T20:21:20.186Z,6.25
2023-02-22T20:23:39.220Z,6.28
2023-02-22T20:25:57.265Z,6.28
2023-02-22T20:28:18.302Z,6.28
2023-02-22T20:30:37.657Z,6.22
2023-02-22T20:32:58.476Z,6.21
2023-02-22T20:35:18.901Z,6.22
2023-02-22T20:37:37.012Z,6.16
2023-02-22T20:39:57.581Z,6.14
2023-02-22T20:42:18.283Z,6.09
2023-02-22T20:44:39.356Z,6.01
2023-02-22T20:48:00.485Z,6.00
2023-02-22T21:13:37.598Z,6.03
2023-02-22T21:19:51.705Z,5.93
2023-02-22T21:22:12.872Z,5.98
2023-02-22T21:24:31.822Z,6.10
2023-02-22T21:26:52.422Z,6.11
2023-02-22T21:29:09.050Z,6.10
2023-02-22T21:31:29.748Z,6.16
2023-02-22T21:33:51.228Z,6.14
2023-02-22T21:36:10.386Z,6.11
2023-02-22T21:38:30.896Z,6.16
2023-02-22T21:40:51.545Z,6.11
2023-02-22T21:43:10.114Z,6.07
2023-02-22T21:45:30.731Z,6.14
2023-02-22T21:47:49.775Z,6.13
2023-02-22T21:50:07.909Z,6.09
2023-02-22T21:52:26.089Z,6.06
2023-02-22T21:54:42.552Z,6.00
2023-02-22T21:56:59.134Z,5.96
2023-02-22T21:59:16.610Z,5.95
2023-02-22T22:01:34.911Z,5.91
2023-02-22T22:04:00.283Z,5.88
2023-02-22T22:06:16.680Z,5.86
2023-02-22T22:08:37.332Z,5.88
2023-02-22T22:10:56.383Z,5.88
2023-02-22T22:13:53.585Z,5.89
2023-02-22T22:16:12.230Z,5.88
2023-02-22T22:18:32.980Z,5.85
2023-02-22T22:20:51.965Z,5.86
2023-02-22T22:23:10.098Z,5.83
2023-02-22T22:25:30.678Z,5.83
2023-02-22T22:27:51.317Z,5.81
2023-02-22T22:30:11.871Z,5.75
2023-02-22T22:32:32.591Z,5.74
2023-02-22T22:34:53.202Z,5.74
2023-02-22T22:37:13.398Z,5.68
2023-02-22T22:39:30.329Z,5.67
2023-02-22T22:41:46.931Z,5.67
2023-02-22T22:44:07.564Z,5.67
2023-02-22T22:46:25.501Z,5.64
2023-02-22T22:48:46.192Z,5.59
2023-02-22T22:51:07.788Z,5.59
2023-02-22T22:53:24.909Z,5.67
2023-02-22T22:55:45.520Z,5.64
2023-02-22T22:58:07.075Z,5.59
2023-02-22T23:00:23.672Z,5.57
2023-02-22T23:02:44.275Z,5.55
2023-02-22T23:05:05.267Z,5.48
2023-02-22T23:07:25.908Z,5.45
2023-02-22T23:09:44.048Z,5.45
2023-02-22T23:13:13.493Z,5.49
2023-02-22T23:15:31.608Z,5.50
2023-02-22T23:17:48.099Z,5.53
2023-02-22T23:20:06.632Z,5.46
2023-02-22T23:32:43.766Z,5.40
2023-02-22T23:35:52.476Z,5.41
2023-02-22T23:45:37.172Z,5.35
2023-02-22T23:47:57.198Z,5.32
2023-02-22T23:51:10.213Z,5.30
2023-02-22T23:54:29.587Z,5.34
2023-02-22T23:56:49.045Z,5.31
2023-02-22T23:59:13.609Z,5.35
